Language selection

My Weather Profile Weather Topics  | 

Ungava: Past 24 Hour Conditions

 

Arviat Airport

07:00 AM CST 20 January 2022
Disclaimer

This table is a summary of hourly weather conditions for the past 24 hours.
Please note that these observations might not always be representative of weather conditions over their associated marine area.

Date / Time
(CST)
Wind(knots) Conditions Visibility(km) Pressure(kPa) Air tempC) Relative humidity(%) Dew pointC) Wind Chill
20 January 2022
7:00 W 7 Ice Crystals 24 101.4 -26 74 -29 -36
6:00 WSW 8 Clear 16 101.5 -28 73 -32 -39
5:00 W 6 Clear 16 101.6 -30 73 -33 -39
4:00 W 7 Clear 16 101.6 -28 73 -32 -39
3:00 WNW 10 Clear 16 101.7 -27 73 -31 -39
2:00 WNW 11 gust 16 Clear 16 101.7 -27 73 -31 -40
1:00 WNW 13 Clear 16 101.7 -26 74 -30 -40
0:00 WNW 16 Clear 16 101.7 -27 74 -30 -41
19 January 2022
23:00 WNW 16 Clear 16 101.8 -27 74 -30 -42
22:00 NW 8 gust 15 Clear 16 102.0 -27 74 -30 -37
21:00 NW 17 Haze 5 101.9 -27 74 -30 -42
20:00 NW 23 gust 28 Blowing Snow 2 101.9 -26 75 -29 -42
19:00 NW 19 Haze 3 102.0 -26 75 -29 -41
18:00 WNW 21 Haze 5 102.0 -25 75 -28 -41
17:00 NW 19 Ice Crystals 24 102.1 -25 76 -28 -39
16:00 NW 18 gust 23 Ice Crystals 24 102.1 -24 76 -27 -39
15:00 NW 17 Blowing Snow 2 102.1 -24 76 -27 -38
14:00 NW 18 gust 24 Blowing Snow 2 102.0 -24 76 -27 -38
13:00 NW 20 Blowing Snow 1 102.1 -23 78 -26 -38
12:00 NW 25 Blowing Snow 0.8 102.0 -24 76 -27 -40
11:00 NW 24 Blowing Snow 2 102.0 -24 77 -27 -41
10:00 NW 28 gust 33 Blowing Snow 0.8 102.0 -25 77 -28 -42
9:00 NW 25 gust 30 Blowing Snow 0.8 102.0 -26 77 -29 -42
8:00 NW 19 Blowing Snow 2 102.0 -27 76 -30 -43
7:00 NNW 21 Blowing Snow 1 102.0 -27 75 -30 -43

Zoom-in to make a selection

Map of Hudson - Hudson Bay marine weather areas Arviat Airport Baker Lake Airport Chesterfield Inlet Airport Coral Harbour Airport Rankin Inlet Airport Sanikiluaq Airport Whale Cove Airport Kinngait (Cape Dorset Airport) Iqaluit Airport Wager Bay Kimmirut Airport Churchill Airport Fort Severn Airport Peawanuck Airport Moosonee Airport Eastmain Airport La Grande Rivière Airport Waskaganish Airport Wemindji Airport Akulivik Airport Inukjuak Airport Ivujivik Airport Kuujjuarapik Airport Puvirnituq Airport Umiujaq Airport Aupaluk Airport Kangiqsujuaq Airport Kangirsuk Airport Kangiqsualujjuaq Airport Kuujjuaq Airport Quaqtaq Airport Salluit Airport Tasiujaq Airport Cape Kakkiviak
Legend:
buoy Buoy
land station Land Station

Hudson - Hudson Bay Area

Another Region

What we are doing

Features

Hello Weather

Hello Weather: our upgraded telephone weather service is here. 1-833-794-3556 or 1-833-79HELLO.

Date modified: